sensor_id;sensor_type;location;lat;lon;timestamp;pressure;altitude;pressure_sealevel;temperature;humidity
44697;BME280;57264;47.480;19.354;2023-02-15T06:54:07;100839.78;;;2.94;66.70
44697;BME280;57264;47.480;19.354;2023-02-15T06:56:32;100842.53;;;1.53;75.66
44697;BME280;57264;47.480;19.354;2023-02-15T06:58:58;100845.50;;;1.35;77.77
44697;BME280;57264;47.480;19.354;2023-02-15T07:01:23;100848.84;;;1.49;77.69
44697;BME280;57264;47.480;19.354;2023-02-15T07:03:49;100846.78;;;1.54;78.00
44697;BME280;57264;47.480;19.354;2023-02-15T07:06:15;100843.44;;;1.64;77.75
44697;BME280;57264;47.480;19.354;2023-02-15T07:08:40;100839.19;;;1.63;78.07
44697;BME280;57264;47.480;19.354;2023-02-15T07:11:06;100846.81;;;1.65;78.08
44697;BME280;57264;47.480;19.354;2023-02-15T07:13:51;100843.16;;;1.80;77.70
44697;BME280;57264;47.480;19.354;2023-02-15T07:16:18;100834.13;;;1.85;77.77
44697;BME280;57264;47.480;19.354;2023-02-15T07:18:44;100843.91;;;1.93;77.19
44697;BME280;57264;47.480;19.354;2023-02-15T07:21:10;100841.31;;;1.93;77.63
44697;BME280;57264;47.480;19.354;2023-02-15T07:23:36;100844.59;;;2.08;76.98
44697;BME280;57264;47.480;19.354;2023-02-15T07:26:04;100841.53;;;2.14;76.92
44697;BME280;57264;47.480;19.354;2023-02-15T07:28:30;100843.28;;;2.13;76.85
44697;BME280;57264;47.480;19.354;2023-02-15T07:30:56;100842.84;;;2.19;76.86
44697;BME280;57264;47.480;19.354;2023-02-15T07:33:23;100832.50;;;2.19;76.96
44697;BME280;57264;47.480;19.354;2023-02-15T07:36:07;100841.22;;;2.29;76.36
44697;BME280;57264;47.480;19.354;2023-02-15T07:38:39;100839.84;;;2.37;76.59
44697;BME280;57264;47.480;19.354;2023-02-15T07:41:10;100834.19;;;2.31;76.48
44697;BME280;57264;47.480;19.354;2023-02-15T07:43:38;100838.63;;;2.29;76.81
44697;BME280;57264;47.480;19.354;2023-02-15T07:46:09;100840.19;;;2.32;77.04
44697;BME280;57264;47.480;19.354;2023-02-15T07:48:37;100841.28;;;2.41;76.17
44697;BME280;57264;47.480;19.354;2023-02-15T07:51:06;100839.22;;;2.33;76.92
44697;BME280;57264;47.480;19.354;2023-02-15T07:53:32;100830.69;;;2.44;76.49
44697;BME280;57264;47.480;19.354;2023-02-15T07:56:02;100832.44;;;2.54;76.09
44697;BME280;57264;47.480;19.354;2023-02-15T07:58:28;100831.41;;;2.57;76.26
44697;BME280;57264;47.480;19.354;2023-02-15T08:01:13;100825.28;;;2.69;75.74
44697;BME280;57264;47.480;19.354;2023-02-15T08:03:39;100829.19;;;2.63;75.66
44697;BME280;57264;47.480;19.354;2023-02-15T08:06:05;100825.53;;;2.77;75.51
44697;BME280;57264;47.480;19.354;2023-02-15T08:08:30;100819.63;;;2.75;75.63
44697;BME280;57264;47.480;19.354;2023-02-15T08:14:05;100821.63;;;2.94;74.63
44697;BME280;57264;47.480;19.354;2023-02-15T08:19:19;100811.97;;;3.07;74.50
44697;BME280;57264;47.480;19.354;2023-02-15T08:21:47;100815.97;;;3.11;74.06
44697;BME280;57264;47.480;19.354;2023-02-15T08:24:16;100815.50;;;3.06;74.60
44697;BME280;57264;47.480;19.354;2023-02-15T08:26:43;100816.81;;;3.11;74.26
44697;BME280;57264;47.480;19.354;2023-02-15T08:29:10;100818.09;;;3.28;74.45
44697;BME280;57264;47.480;19.354;2023-02-15T08:31:36;100812.41;;;3.34;73.88
44697;BME280;57264;47.480;19.354;2023-02-15T08:34:03;100811.50;;;3.24;73.78
44697;BME280;57264;47.480;19.354;2023-02-15T08:36:29;100816.56;;;3.37;73.84
44697;BME280;57264;47.480;19.354;2023-02-15T08:39:01;100806.88;;;3.27;74.01
44697;BME280;57264;47.480;19.354;2023-02-15T08:41:33;100809.59;;;3.26;73.92
44697;BME280;57264;47.480;19.354;2023-02-15T08:44:00;100813.56;;;3.41;73.62
44697;BME280;57264;47.480;19.354;2023-02-15T08:46:28;100813.94;;;3.48;73.47
44697;BME280;57264;47.480;19.354;2023-02-15T08:48:54;100811.78;;;3.53;73.73
44697;BME280;57264;47.480;19.354;2023-02-15T08:51:22;100812.59;;;3.64;72.69
44697;BME280;57264;47.480;19.354;2023-02-15T08:53:53;100818.97;;;3.60;72.74
44697;BME280;57264;47.480;19.354;2023-02-15T08:56:21;100814.47;;;3.62;72.55
44697;BME280;57264;47.480;19.354;2023-02-15T08:58:47;100813.88;;;3.59;72.20
44697;BME280;57264;47.480;19.354;2023-02-15T09:01:21;100811.41;;;3.68;73.11
44697;BME280;57264;47.480;19.354;2023-02-15T09:03:49;100808.38;;;3.84;72.47
44697;BME280;57264;47.480;19.354;2023-02-15T09:06:16;100806.53;;;3.75;71.77
44697;BME280;57264;47.480;19.354;2023-02-15T09:08:41;100808.19;;;3.76;72.80
44697;BME280;57264;47.480;19.354;2023-02-15T09:11:16;100804.59;;;3.88;72.34
44697;BME280;57264;47.480;19.354;2023-02-15T09:13:48;100803.81;;;3.97;71.50
44697;BME280;57264;47.480;19.354;2023-02-15T09:16:15;100812.13;;;3.91;71.83
44697;BME280;57264;47.480;19.354;2023-02-15T09:18:42;100808.72;;;4.11;71.37
44697;BME280;57264;47.480;19.354;2023-02-15T09:21:10;100810.03;;;4.17;71.02
44697;BME280;57264;47.480;19.354;2023-02-15T09:23:39;100803.03;;;4.17;71.25
44697;BME280;57264;47.480;19.354;2023-02-15T09:26:08;100813.28;;;4.19;70.37
44697;BME280;57264;47.480;19.354;2023-02-15T09:28:34;100806.25;;;4.10;70.65
44697;BME280;57264;47.480;19.354;2023-02-15T09:31:14;100796.44;;;4.13;70.92
44697;BME280;57264;47.480;19.354;2023-02-15T09:33:42;100801.41;;;4.16;70.57
44697;BME280;57264;47.480;19.354;2023-02-15T09:36:18;100798.09;;;4.14;70.31
44697;BME280;57264;47.480;19.354;2023-02-15T09:38:45;100790.94;;;4.28;70.83
44697;BME280;57264;47.480;19.354;2023-02-15T10:00:58;100791.88;;;4.47;69.61
44697;BME280;57264;47.480;19.354;2023-02-15T10:14:15;100773.38;;;4.71;68.80
44697;BME280;57264;47.480;19.354;2023-02-15T10:19:28;100773.41;;;4.81;67.30
44697;BME280;57264;47.480;19.354;2023-02-15T10:22:39;100774.88;;;4.73;68.45
44697;BME280;57264;47.480;19.354;2023-02-15T10:27:48;100764.19;;;4.67;69.04
44697;BME280;57264;47.480;19.354;2023-02-15T10:30:18;100766.44;;;4.81;68.93
44697;BME280;57264;47.480;19.354;2023-02-15T10:36:21;100753.50;;;5.00;68.69
44697;BME280;57264;47.480;19.354;2023-02-15T10:53:32;100756.91;;;5.01;69.27
44697;BME280;57264;47.480;19.354;2023-02-15T10:59:02;100742.44;;;5.17;68.21
44697;BME280;57264;47.480;19.354;2023-02-15T11:01:50;100745.84;;;5.08;68.87
44697;BME280;57264;47.480;19.354;2023-02-15T11:07:14;100741.47;;;5.18;67.75
44697;BME280;57264;47.480;19.354;2023-02-15T11:09:44;100738.25;;;5.45;67.06
44697;BME280;57264;47.480;19.354;2023-02-15T11:12:18;100734.09;;;5.24;66.73
44697;BME280;57264;47.480;19.354;2023-02-15T11:17:38;100720.78;;;5.27;68.08
44697;BME280;57264;47.480;19.354;2023-02-15T11:20:43;100724.22;;;5.46;67.58
44697;BME280;57264;47.480;19.354;2023-02-15T11:23:15;100713.69;;;5.29;67.70
44697;BME280;57264;47.480;19.354;2023-02-15T11:25:46;100715.31;;;5.39;66.75
44697;BME280;57264;47.480;19.354;2023-02-15T11:28:30;100713.81;;;5.46;65.68
44697;BME280;57264;47.480;19.354;2023-02-15T11:31:02;100707.38;;;5.31;65.08
44697;BME280;57264;47.480;19.354;2023-02-15T11:33:38;100712.03;;;5.47;66.46
44697;BME280;57264;47.480;19.354;2023-02-15T11:36:34;100706.03;;;5.37;66.95
44697;BME280;57264;47.480;19.354;2023-02-15T11:39:09;100708.22;;;5.60;66.08
44697;BME280;57264;47.480;19.354;2023-02-15T11:41:40;100700.53;;;5.40;66.48
44697;BME280;57264;47.480;19.354;2023-02-15T11:44:21;100704.25;;;5.56;65.83
44697;BME280;57264;47.480;19.354;2023-02-15T11:46:49;100705.19;;;5.46;67.38
44697;BME280;57264;47.480;19.354;2023-02-15T11:49:33;100700.81;;;5.56;67.42
44697;BME280;57264;47.480;19.354;2023-02-15T11:52:02;100696.97;;;5.41;67.54
44697;BME280;57264;47.480;19.354;2023-02-15T11:54:33;100689.16;;;5.60;67.34
44697;BME280;57264;47.480;19.354;2023-02-15T11:59:40;100685.16;;;5.75;66.15
44697;BME280;57264;47.480;19.354;2023-02-15T12:02:18;100681.31;;;5.98;65.60
44697;BME280;57264;47.480;19.354;2023-02-15T12:04:49;100677.22;;;5.77;63.88
44697;BME280;57264;47.480;19.354;2023-02-15T12:07:30;100669.53;;;5.85;65.69
44697;BME280;57264;47.480;19.354;2023-02-15T12:12:37;100667.75;;;5.66;65.82
44697;BME280;57264;47.480;19.354;2023-02-15T12:15:06;100667.75;;;5.66;64.69
44697;BME280;57264;47.480;19.354;2023-02-15T12:17:35;100669.13;;;5.70;65.07
44697;BME280;57264;47.480;19.354;2023-02-15T12:22:37;100669.94;;;5.71;65.25
44697;BME280;57264;47.480;19.354;2023-02-15T12:27:55;100655.53;;;5.95;62.75
44697;BME280;57264;47.480;19.354;2023-02-15T12:30:44;100652.38;;;5.82;62.64
44697;BME280;57264;47.480;19.354;2023-02-15T12:36:24;100642.56;;;5.57;64.47
44697;BME280;57264;47.480;19.354;2023-02-15T12:41:38;100637.72;;;5.81;65.32
44697;BME280;57264;47.480;19.354;2023-02-15T12:44:25;100633.47;;;5.80;65.11
44697;BME280;57264;47.480;19.354;2023-02-15T12:49:43;100628.41;;;5.88;65.05
44697;BME280;57264;47.480;19.354;2023-02-15T12:52:27;100634.66;;;5.86;63.77
44697;BME280;57264;47.480;19.354;2023-02-15T12:54:52;100629.38;;;5.78;63.90
44697;BME280;57264;47.480;19.354;2023-02-15T12:57:32;100628.66;;;5.76;64.06
44697;BME280;57264;47.480;19.354;2023-02-15T13:00:00;100623.59;;;5.93;64.70
44697;BME280;57264;47.480;19.354;2023-02-15T13:02:42;100622.34;;;5.88;62.70
44697;BME280;57264;47.480;19.354;2023-02-15T13:07:45;100610.41;;;5.95;62.79
44697;BME280;57264;47.480;19.354;2023-02-15T13:10:22;100611.78;;;5.80;62.21
44697;BME280;57264;47.480;19.354;2023-02-15T13:12:50;100606.97;;;5.94;63.32
44697;BME280;57264;47.480;19.354;2023-02-15T13:15:40;100609.03;;;6.00;60.83
44697;BME280;57264;47.480;19.354;2023-02-15T13:18:14;100604.38;;;5.85;61.51
44697;BME280;57264;47.480;19.354;2023-02-15T13:20:41;100600.53;;;5.79;62.12
44697;BME280;57264;47.480;19.354;2023-02-15T13:23:26;100602.47;;;5.77;60.97
44697;BME280;57264;47.480;19.354;2023-02-15T13:25:55;100595.19;;;5.81;62.19
44697;BME280;57264;47.480;19.354;2023-02-15T13:28:24;100590.66;;;5.83;61.29
44697;BME280;57264;47.480;19.354;2023-02-15T13:30:52;100594.78;;;5.76;61.87
44697;BME280;57264;47.480;19.354;2023-02-15T13:33:34;100595.91;;;5.73;61.14
44697;BME280;57264;47.480;19.354;2023-02-15T13:52:24;100581.22;;;5.82;63.05
44697;BME280;57264;47.480;19.354;2023-02-15T13:57:44;100579.84;;;5.78;64.28
44697;BME280;57264;47.480;19.354;2023-02-15T14:00:23;100569.69;;;5.84;63.79
44697;BME280;57264;47.480;19.354;2023-02-15T14:03:17;100577.63;;;5.83;62.80
44697;BME280;57264;47.480;19.354;2023-02-15T14:06:14;100574.06;;;5.84;61.78
44697;BME280;57264;47.480;19.354;2023-02-15T14:14:35;100576.53;;;5.85;62.05
44697;BME280;57264;47.480;19.354;2023-02-15T14:20:20;100574.66;;;5.78;62.78
44697;BME280;57264;47.480;19.354;2023-02-15T14:25:59;100579.75;;;5.70;62.57
44697;BME280;57264;47.480;19.354;2023-02-15T14:31:04;100581.09;;;5.74;64.58
44697;BME280;57264;47.480;19.354;2023-02-15T14:33:37;100591.94;;;5.69;62.67
44697;BME280;57264;47.480;19.354;2023-02-15T14:36:06;100588.69;;;5.57;64.23
44697;BME280;57264;47.480;19.354;2023-02-15T14:38:56;100592.38;;;5.55;63.26
44697;BME280;57264;47.480;19.354;2023-02-15T14:41:48;100588.41;;;5.51;62.97
44697;BME280;57264;47.480;19.354;2023-02-15T14:44:45;100592.09;;;5.58;63.49
44697;BME280;57264;47.480;19.354;2023-02-15T14:47:24;100584.03;;;5.42;63.83
44697;BME280;57264;47.480;19.354;2023-02-15T14:49:52;100580.06;;;5.38;63.72
44697;BME280;57264;47.480;19.354;2023-02-15T14:52:17;100586.38;;;5.45;63.71
44697;BME280;57264;47.480;19.354;2023-02-15T14:59:56;100578.84;;;5.32;64.37
44697;BME280;57264;47.480;19.354;2023-02-15T15:02:49;100581.66;;;5.58;62.76
44697;BME280;57264;47.480;19.354;2023-02-15T15:08:04;100572.69;;;5.33;63.55
44697;BME280;57264;47.480;19.354;2023-02-15T15:13:34;100568.56;;;5.40;63.93
44697;BME280;57264;47.480;19.354;2023-02-15T15:18:51;100566.28;;;5.08;65.06
44697;BME280;57264;47.480;19.354;2023-02-15T15:22:11;100558.16;;;5.02;64.78
44697;BME280;57264;47.480;19.354;2023-02-15T15:49:23;100543.78;;;4.00;68.69
44697;BME280;57264;47.480;19.354;2023-02-15T15:51:50;100545.84;;;3.97;68.59
44697;BME280;57264;47.480;19.354;2023-02-15T15:54:21;100546.47;;;3.59;69.75
44697;BME280;57264;47.480;19.354;2023-02-15T15:56:51;100535.59;;;3.65;70.32
44697;BME280;57264;47.480;19.354;2023-02-15T15:59:29;100533.72;;;3.76;69.78
44697;BME280;57264;47.480;19.354;2023-02-15T16:01:56;100544.31;;;3.64;69.84
44697;BME280;57264;47.480;19.354;2023-02-15T16:04:30;100545.16;;;3.64;70.51
44697;BME280;57264;47.480;19.354;2023-02-15T16:06:57;100548.25;;;3.58;70.32
44697;BME280;57264;47.480;19.354;2023-02-15T16:09:26;100556.50;;;3.43;70.33
44697;BME280;57264;47.480;19.354;2023-02-15T16:11:54;100552.69;;;3.26;71.29
44697;BME280;57264;47.480;19.354;2023-02-15T16:14:44;100549.00;;;2.87;73.18
44697;BME280;57264;47.480;19.354;2023-02-15T16:17:25;100554.22;;;3.08;72.70
44697;BME280;57264;47.480;19.354;2023-02-15T16:19:53;100550.09;;;3.05;72.71
44697;BME280;57264;47.480;19.354;2023-02-15T16:22:23;100556.66;;;2.57;73.66
44697;BME280;57264;47.480;19.354;2023-02-15T16:27:40;100559.09;;;1.82;76.63
44697;BME280;57264;47.480;19.354;2023-02-15T16:30:33;100565.06;;;1.49;77.81
44697;BME280;57264;47.480;19.354;2023-02-15T16:33:15;100567.88;;;1.35;77.89
44697;BME280;57264;47.480;19.354;2023-02-15T16:35:56;100562.94;;;1.32;78.65
44697;BME280;57264;47.480;19.354;2023-02-15T16:41:28;100560.72;;;1.04;79.29
44697;BME280;57264;47.480;19.354;2023-02-15T16:43:56;100556.56;;;0.90;79.25
44697;BME280;57264;47.480;19.354;2023-02-15T16:48:51;100566.72;;;0.80;80.61
44697;BME280;57264;47.480;19.354;2023-02-15T16:51:25;100569.13;;;0.60;81.16
44697;BME280;57264;47.480;19.354;2023-02-15T16:53:53;100566.59;;;0.71;79.37
44697;BME280;57264;47.480;19.354;2023-02-15T16:56:28;100566.88;;;0.90;82.12
44697;BME280;57264;47.480;19.354;2023-02-15T16:58:56;100564.09;;;0.69;81.86
44697;BME280;57264;47.480;19.354;2023-02-15T17:01:26;100564.78;;;0.84;82.43
44697;BME280;57264;47.480;19.354;2023-02-15T17:04:28;100563.84;;;0.48;81.08
44697;BME280;57264;47.480;19.354;2023-02-15T17:07:06;100563.09;;;0.83;81.68
44697;BME280;57264;47.480;19.354;2023-02-15T17:09:51;100566.09;;;0.29;81.34
44697;BME280;57264;47.480;19.354;2023-02-15T17:15:32;100564.78;;;0.24;81.93
44697;BME280;57264;47.480;19.354;2023-02-15T17:18:01;100570.47;;;0.16;82.80
44697;BME280;57264;47.480;19.354;2023-02-15T17:20:28;100568.53;;;0.07;82.15
44697;BME280;57264;47.480;19.354;2023-02-15T17:22:54;100565.53;;;0.00;83.79
44697;BME280;57264;47.480;19.354;2023-02-15T17:25:26;100565.22;;;0.05;84.75
44697;BME280;57264;47.480;19.354;2023-02-15T17:27:55;100567.19;;;0.14;84.05
44697;BME280;57264;47.480;19.354;2023-02-15T17:30:39;100564.56;;;0.27;83.88
44697;BME280;57264;47.480;19.354;2023-02-15T17:33:22;100572.47;;;0.00;83.28
44697;BME280;57264;47.480;19.354;2023-02-15T17:38:29;100574.84;;;0.03;83.36
44697;BME280;57264;47.480;19.354;2023-02-15T17:40:55;100563.56;;;0.04;85.42
44697;BME280;57264;47.480;19.354;2023-02-15T17:43:21;100571.22;;;-0.07;84.00
44697;BME280;57264;47.480;19.354;2023-02-15T17:45:48;100572.06;;;-0.07;83.29
44697;BME280;57264;47.480;19.354;2023-02-15T17:48:27;100572.13;;;0.17;84.83
44697;BME280;57264;47.480;19.354;2023-02-15T17:50:57;100575.38;;;-0.17;84.07
44697;BME280;57264;47.480;19.354;2023-02-15T17:53:23;100568.66;;;-0.07;84.68
44697;BME280;57264;47.480;19.354;2023-02-15T17:55:50;100573.94;;;-0.09;84.80
44697;BME280;57264;47.480;19.354;2023-02-15T17:58:18;100568.94;;;0.01;85.00
44697;BME280;57264;47.480;19.354;2023-02-15T18:00:49;100564.50;;;0.16;85.24
44697;BME280;57264;47.480;19.354;2023-02-15T18:06:25;100559.69;;;-0.14;85.03
44697;BME280;57264;47.480;19.354;2023-02-15T18:09:12;100562.56;;;-0.06;85.20
44697;BME280;57264;47.480;19.354;2023-02-15T18:11:58;100560.78;;;0.20;86.38
44697;BME280;57264;47.480;19.354;2023-02-15T18:14:24;100554.47;;;0.24;85.17
44697;BME280;57264;47.480;19.354;2023-02-15T18:16:51;100554.25;;;0.27;85.44
44697;BME280;57264;47.480;19.354;2023-02-15T18:19:26;100558.00;;;0.10;85.77
44697;BME280;57264;47.480;19.354;2023-02-15T18:21:52;100560.28;;;-0.11;86.09
44697;BME280;57264;47.480;19.354;2023-02-15T18:24:22;100559.78;;;-0.16;85.32
44697;BME280;57264;47.480;19.354;2023-02-15T18:26:49;100555.34;;;-0.26;84.67
44697;BME280;57264;47.480;19.354;2023-02-15T18:29:15;100552.16;;;-0.30;85.63
44697;BME280;57264;47.480;19.354;2023-02-15T18:31:41;100553.41;;;-0.23;85.66
44697;BME280;57264;47.480;19.354;2023-02-15T18:36:46;100541.84;;;-0.42;84.52
44697;BME280;57264;47.480;19.354;2023-02-15T18:39:49;100546.47;;;-0.22;86.38
44697;BME280;57264;47.480;19.354;2023-02-15T18:42:23;100556.59;;;-0.32;86.21
44697;BME280;57264;47.480;19.354;2023-02-15T18:44:57;100548.34;;;-0.24;85.79
44697;BME280;57264;47.480;19.354;2023-02-15T18:47:23;100557.22;;;-0.28;85.81
44697;BME280;57264;47.480;19.354;2023-02-15T18:49:49;100556.41;;;-0.54;86.00
44697;BME280;57264;47.480;19.354;2023-02-15T18:52:16;100547.31;;;-0.34;86.18
44697;BME280;57264;47.480;19.354;2023-02-15T18:54:43;100553.81;;;-0.29;86.55
44697;BME280;57264;47.480;19.354;2023-02-15T18:57:13;100557.94;;;-0.26;86.27
44697;BME280;57264;47.480;19.354;2023-02-15T18:59:39;100553.22;;;-0.45;84.65
44697;BME280;57264;47.480;19.354;2023-02-15T19:02:16;100555.19;;;-0.49;86.49
44697;BME280;57264;47.480;19.354;2023-02-15T19:04:43;100554.75;;;-0.42;85.53
44697;BME280;57264;47.480;19.354;2023-02-15T19:07:29;100544.41;;;-0.17;87.16
44697;BME280;57264;47.480;19.354;2023-02-15T19:09:58;100547.81;;;-0.04;87.06
44697;BME280;57264;47.480;19.354;2023-02-15T19:12:25;100553.38;;;0.03;86.76
44697;BME280;57264;47.480;19.354;2023-02-15T19:14:52;100549.16;;;0.25;86.49
44697;BME280;57264;47.480;19.354;2023-02-15T19:17:19;100544.22;;;0.22;86.40
44697;BME280;57264;47.480;19.354;2023-02-15T19:19:45;100552.31;;;0.41;86.63
44697;BME280;57264;47.480;19.354;2023-02-15T19:22:24;100545.19;;;0.69;85.28
44697;BME280;57264;47.480;19.354;2023-02-15T19:24:51;100547.66;;;0.70;85.14
44697;BME280;57264;47.480;19.354;2023-02-15T19:27:22;100550.34;;;0.69;85.18
44697;BME280;57264;47.480;19.354;2023-02-15T19:29:50;100549.75;;;0.65;85.09
44697;BME280;57264;47.480;19.354;2023-02-15T19:32:15;100549.66;;;0.67;85.17
44697;BME280;57264;47.480;19.354;2023-02-15T19:34:41;100549.16;;;0.62;85.19
44697;BME280;57264;47.480;19.354;2023-02-15T19:39:57;100543.94;;;0.51;85.27
44697;BME280;57264;47.480;19.354;2023-02-15T19:42:23;100536.13;;;0.39;85.08
44697;BME280;57264;47.480;19.354;2023-02-15T19:44:49;100537.72;;;0.17;85.52
44697;BME280;57264;47.480;19.354;2023-02-15T19:47:15;100540.72;;;0.23;86.09
44697;BME280;57264;47.480;19.354;2023-02-15T19:49:43;100532.47;;;0.18;85.91
44697;BME280;57264;47.480;19.354;2023-02-15T19:52:20;100537.81;;;0.28;86.14
44697;BME280;57264;47.480;19.354;2023-02-15T19:54:48;100543.72;;;0.17;85.84
44697;BME280;57264;47.480;19.354;2023-02-15T19:57:14;100536.16;;;-0.10;86.25
44697;BME280;57264;47.480;19.354;2023-02-15T19:59:40;100541.94;;;-0.31;86.20
44697;BME280;57264;47.480;19.354;2023-02-15T20:02:08;100538.66;;;-0.46;86.87
44697;BME280;57264;47.480;19.354;2023-02-15T20:04:36;100535.06;;;0.06;87.86
44697;BME280;57264;47.480;19.354;2023-02-15T20:07:04;100530.09;;;0.15;86.39
44697;BME280;57264;47.480;19.354;2023-02-15T20:09:33;100535.38;;;0.14;85.93
44697;BME280;57264;47.480;19.354;2023-02-15T20:12:02;100540.47;;;0.03;86.43
44697;BME280;57264;47.480;19.354;2023-02-15T20:14:28;100543.34;;;-0.02;87.02
44697;BME280;57264;47.480;19.354;2023-02-15T20:16:54;100537.66;;;0.06;87.23
44697;BME280;57264;47.480;19.354;2023-02-15T20:19:19;100535.06;;;0.18;86.77
44697;BME280;57264;47.480;19.354;2023-02-15T20:21:47;100535.81;;;0.08;85.95
44697;BME280;57264;47.480;19.354;2023-02-15T20:24:20;100539.59;;;0.15;86.64
44697;BME280;57264;47.480;19.354;2023-02-15T20:26:46;100542.22;;;0.02;86.13
44697;BME280;57264;47.480;19.354;2023-02-15T20:29:13;100541.13;;;0.17;86.62
44697;BME280;57264;47.480;19.354;2023-02-15T20:31:40;100536.91;;;0.16;86.85
44697;BME280;57264;47.480;19.354;2023-02-15T20:34:05;100532.72;;;0.39;86.45
44697;BME280;57264;47.480;19.354;2023-02-15T20:36:31;100537.97;;;0.37;86.17
44697;BME280;57264;47.480;19.354;2023-02-15T20:39:00;100542.16;;;0.51;86.55
44697;BME280;57264;47.480;19.354;2023-02-15T20:41:28;100529.19;;;0.64;86.20
44697;BME280;57264;47.480;19.354;2023-02-15T20:44:19;100532.53;;;0.29;86.55
44697;BME280;57264;47.480;19.354;2023-02-15T20:46:45;100530.16;;;0.26;86.55
44697;BME280;57264;47.480;19.354;2023-02-15T20:49:11;100529.94;;;0.29;87.00
44697;BME280;57264;47.480;19.354;2023-02-15T20:51:37;100531.59;;;0.54;85.81
44697;BME280;57264;47.480;19.354;2023-02-15T20:54:33;100524.19;;;0.50;86.06
44697;BME280;57264;47.480;19.354;2023-02-15T20:57:00;100526.94;;;0.35;86.08
44697;BME280;57264;47.480;19.354;2023-02-15T20:59:28;100520.69;;;0.51;85.71
44697;BME280;57264;47.480;19.354;2023-02-15T21:01:59;100520.72;;;0.62;85.90
44697;BME280;57264;47.480;19.354;2023-02-15T21:04:32;100519.47;;;0.67;85.29
44697;BME280;57264;47.480;19.354;2023-02-15T21:07:00;100518.75;;;0.65;85.20
44697;BME280;57264;47.480;19.354;2023-02-15T21:09:26;100520.22;;;0.57;85.58
44697;BME280;57264;47.480;19.354;2023-02-15T21:11:53;100520.03;;;0.60;85.00
44697;BME280;57264;47.480;19.354;2023-02-15T21:14:22;100522.16;;;0.66;85.20
44697;BME280;57264;47.480;19.354;2023-02-15T21:16:50;100519.13;;;0.72;84.70
44697;BME280;57264;47.480;19.354;2023-02-15T21:19:22;100511.59;;;0.69;84.63
44697;BME280;57264;47.480;19.354;2023-02-15T21:21:49;100518.75;;;0.65;84.61
44697;BME280;57264;47.480;19.354;2023-02-15T21:24:24;100519.44;;;0.56;84.67
44697;BME280;57264;47.480;19.354;2023-02-15T21:26:51;100510.91;;;0.43;84.82
44697;BME280;57264;47.480;19.354;2023-02-15T21:29:19;100524.50;;;0.21;85.24
44697;BME280;57264;47.480;19.354;2023-02-15T21:31:46;100518.19;;;0.25;85.75
44697;BME280;57264;47.480;19.354;2023-02-15T21:34:13;100513.53;;;0.30;85.95
44697;BME280;57264;47.480;19.354;2023-02-15T21:36:41;100516.25;;;0.16;85.89
44697;BME280;57264;47.480;19.354;2023-02-15T21:39:18;100514.13;;;0.34;86.27
44697;BME280;57264;47.480;19.354;2023-02-15T21:41:47;100516.63;;;0.35;85.72
44697;BME280;57264;47.480;19.354;2023-02-15T21:44:32;100521.91;;;0.21;85.71
44697;BME280;57264;47.480;19.354;2023-02-15T21:47:27;100516.94;;;-0.06;86.90
44697;BME280;57264;47.480;19.354;2023-02-15T21:50:14;100516.88;;;-0.17;87.71
44697;BME280;57264;47.480;19.354;2023-02-15T21:52:59;100519.75;;;-0.21;88.26
44697;BME280;57264;47.480;19.354;2023-02-15T21:55:26;100515.84;;;-0.39;87.11
44697;BME280;57264;47.480;19.354;2023-02-15T21:57:51;100515.53;;;-0.60;87.43
44697;BME280;57264;47.480;19.354;2023-02-15T22:00:19;100509.47;;;-0.84;87.31
44697;BME280;57264;47.480;19.354;2023-02-15T22:02:47;100509.94;;;-0.92;87.06
44697;BME280;57264;47.480;19.354;2023-02-15T22:05:20;100517.50;;;-0.89;88.22
44697;BME280;57264;47.480;19.354;2023-02-15T22:07:46;100512.56;;;-0.54;89.18
44697;BME280;57264;47.480;19.354;2023-02-15T22:10:12;100510.81;;;-0.54;88.13
44697;BME280;57264;47.480;19.354;2023-02-15T22:12:39;100522.88;;;-0.67;87.52
44697;BME280;57264;47.480;19.354;2023-02-15T22:15:06;100514.28;;;-0.80;87.72
44697;BME280;57264;47.480;19.354;2023-02-15T22:17:32;100510.47;;;-0.87;87.14
44697;BME280;57264;47.480;19.354;2023-02-15T22:19:59;100508.44;;;-0.82;87.78
44697;BME280;57264;47.480;19.354;2023-02-15T22:22:25;100506.06;;;-0.85;88.63
44697;BME280;57264;47.480;19.354;2023-02-15T22:24:51;100512.03;;;-0.72;88.70
44697;BME280;57264;47.480;19.354;2023-02-15T22:27:25;100513.81;;;-0.85;88.60
44697;BME280;57264;47.480;19.354;2023-02-15T22:29:53;100511.50;;;-0.26;90.37
44697;BME280;57264;47.480;19.354;2023-02-15T22:32:24;100508.63;;;0.15;89.16
44697;BME280;57264;47.480;19.354;2023-02-15T22:34:51;100513.16;;;0.24;88.27
44697;BME280;57264;47.480;19.354;2023-02-15T22:37:18;100508.91;;;-0.14;88.02
44697;BME280;57264;47.480;19.354;2023-02-15T22:39:43;100510.69;;;-0.39;86.50
44697;BME280;57264;47.480;19.354;2023-02-15T22:42:27;100504.25;;;-0.09;89.80
44697;BME280;57264;47.480;19.354;2023-02-15T22:44:54;100514.06;;;0.23;89.00
44697;BME280;57264;47.480;19.354;2023-02-15T22:47:23;100520.91;;;0.47;88.71
44697;BME280;57264;47.480;19.354;2023-02-15T22:49:49;100519.19;;;0.35;88.02
44697;BME280;57264;47.480;19.354;2023-02-15T22:52:15;100523.59;;;0.46;88.50
44697;BME280;57264;47.480;19.354;2023-02-15T22:54:41;100525.66;;;0.41;88.61
44697;BME280;57264;47.480;19.354;2023-02-15T22:57:15;100518.00;;;0.52;88.02
44697;BME280;57264;47.480;19.354;2023-02-15T22:59:43;100522.44;;;0.50;87.48
44697;BME280;57264;47.480;19.354;2023-02-15T23:02:12;100520.66;;;0.27;87.07
44697;BME280;57264;47.480;19.354;2023-02-15T23:04:38;100516.69;;;0.10;87.86
44697;BME280;57264;47.480;19.354;2023-02-15T23:07:13;100518.63;;;0.19;88.45
44697;BME280;57264;47.480;19.354;2023-02-15T23:09:39;100513.25;;;-0.39;86.39